KONT/ONT METAR and TAF weather

Enter ICAO airport designator
Station Type Date Time Source
KONT METAR 2018/12/12 07:53 UTC NOAA

KONT 120753Z VRB03KT 6SM HZ FEW010 11/08 A3008 RMK AO2 SLP183 T01110078 402000089


Station Type Date Time Source
KONT Decoded METAR 2018/12/12 07:53 UTC NOAA

ONTARIO INTERNATIONAL AIRPORT, CA, United States (KONT) 34-03N 117-35W 275M
Dec 12, 2018 - 02:53 AM EST / 2018.12.12 0753 UTC
Wind: Variable at 3 MPH (3 KT):0
Visibility: 6 mile(s):0
Sky conditions: mostly clear
Weather: haze
Temperature: 52.0 F (11.1 C)
Dew Point: 46.0 F (7.8 C)
Relative Humidity: 80%
Pressure (altimeter): 30.08 in. Hg (1018 hPa)
ob: KONT 120753Z VRB03KT 6SM HZ FEW010 11/08 A3008 RMK AO2 SLP183 T01110078 402000089
cycle: 8

Station Type Date Time Source
KONT TAF 2018/12/12 06:22 UTC NOAA

TAF KONT 120520Z 1206/1312 VRB04KT P6SM SKC
FM122000 27007KT P6SM SKC
FM130300 VRB05KT P6SM SKC


Example: see airport list